Time;durP1;ratioP1;P1;durP2;ratioP2;P2;SDS_P1;SDS_P2;PMS_P1;PMS_P2;Temp;Humidity;BMP_temperature;BMP_pressure;BME280_temperature;BME280_humidity;BME280_pressure;Samples;Min_cycle;Max_cycle;Signal;HPM_P1;HPM_P2
2022/12/19 00:00:19;;;;;;;8.03;6.20;;;13.90;78.70;;;;;;4172059;28;20212;-77
2022/12/19 00:02:23;;;;;;;8.23;6.67;;;13.90;78.70;;;;;;4179137;28;20635;-77
2022/12/19 00:04:25;;;;;;;10.07;6.13;;;13.90;78.70;;;;;;4176884;28;20266;-76
2022/12/19 00:06:29;;;;;;;8.33;6.70;;;13.90;79.50;;;;;;4179385;28;20276;-77
2022/12/19 00:08:31;;;;;;;7.47;6.53;;;13.80;78.90;;;;;;4180832;28;20216;-76
2022/12/19 00:10:34;;;;;;;8.47;6.47;;;13.80;78.70;;;;;;4176057;28;20277;-76
2022/12/19 00:12:36;;;;;;;7.20;5.80;;;13.80;78.90;;;;;;4179887;28;20620;-76
2022/12/19 00:14:38;;;;;;;7.60;5.93;;;13.90;79.10;;;;;;4179780;28;20227;-77
2022/12/19 00:16:41;;;;;;;7.23;6.17;;;13.90;79.40;;;;;;4170958;28;20253;-77
2022/12/19 00:18:46;;;;;;;7.60;6.43;;;13.90;79.10;;;;;;4179621;28;20224;-77
2022/12/19 00:20:55;;;;;;;8.13;6.40;;;13.90;79.20;;;;;;4180243;28;20211;-76
2022/12/19 00:22:58;;;;;;;7.97;6.57;;;13.90;79.10;;;;;;4174208;28;20250;-76
2022/12/19 00:25:00;;;;;;;7.77;6.37;;;13.80;79.20;;;;;;4173970;28;20274;-77
2022/12/19 00:27:03;;;;;;;6.93;5.83;;;13.80;79.20;;;;;;4180068;28;20270;-77
2022/12/19 00:29:07;;;;;;;8.70;5.70;;;13.80;79.40;;;;;;4168927;28;20250;-77
2022/12/19 00:31:10;;;;;;;7.93;6.60;;;13.90;79.40;;;;;;4179236;28;20726;-76
2022/12/19 00:33:12;;;;;;;8.30;6.53;;;13.80;79.30;;;;;;4178765;28;20289;-77
2022/12/19 00:35:16;;;;;;;7.03;5.90;;;13.80;79.40;;;;;;4175614;28;20208;-76
2022/12/19 00:37:18;;;;;;;7.60;6.13;;;13.80;79.50;;;;;;4179353;28;20274;-77
2022/12/19 00:39:21;;;;;;;7.67;6.30;;;13.80;79.50;;;;;;4177310;28;20219;-76
2022/12/19 00:41:25;;;;;;;6.60;5.70;;;13.90;79.80;;;;;;4169538;28;20264;-77
2022/12/19 00:43:27;;;;;;;8.70;6.63;;;13.80;79.70;;;;;;4168018;28;20216;-76
2022/12/19 00:45:30;;;;;;;7.87;6.30;;;13.90;79.80;;;;;;4172103;28;20220;-77
2022/12/19 00:47:32;;;;;;;7.13;5.63;;;13.80;79.80;;;;;;4178017;28;20260;-76
2022/12/19 00:49:35;;;;;;;7.40;6.30;;;13.80;79.80;;;;;;4171110;28;20224;-76
2022/12/19 00:51:38;;;;;;;8.47;6.40;;;13.80;79.80;;;;;;4173303;28;20358;-77
2022/12/19 00:53:42;;;;;;;6.83;5.90;;;13.80;79.80;;;;;;4178903;28;20785;-76
2022/12/19 00:55:44;;;;;;;7.80;6.10;;;13.80;79.80;;;;;;4178975;28;20219;-76
2022/12/19 00:57:47;;;;;;;7.17;5.70;;;13.90;79.90;;;;;;4173379;28;20220;-76
2022/12/19 00:59:51;;;;;;;7.90;6.43;;;13.90;79.90;;;;;;4179302;28;20215;-76
2022/12/19 01:01:53;;;;;;;6.53;5.73;;;13.90;79.90;;;;;;4179306;28;20219;-77
2022/12/19 01:03:58;;;;;;;7.73;6.30;;;13.90;79.90;;;;;;4169489;28;20313;-76
2022/12/19 01:06:00;;;;;;;8.07;6.07;;;13.90;80.00;;;;;;4175088;28;20266;-77
2022/12/19 01:08:04;;;;;;;7.27;6.03;;;13.90;80.20;;;;;;4179695;28;20246;-76
2022/12/19 01:10:08;;;;;;;7.70;6.10;;;13.90;80.20;;;;;;4169463;28;20702;-77
2022/12/19 01:14:30;;;;;;;8.00;6.07;;;13.90;80.20;;;;;;4172943;28;20220;-76
2022/12/19 01:16:33;;;;;;;7.00;5.47;;;13.90;80.20;;;;;;4173971;28;20282;-76
2022/12/19 01:18:36;;;;;;;7.70;5.73;;;13.90;80.70;;;;;;4172547;28;20652;-76
2022/12/19 01:20:39;;;;;;;7.53;5.80;;;13.90;80.60;;;;;;4172094;28;20221;-76
2022/12/19 01:22:41;;;;;;;7.77;5.63;;;13.90;80.80;;;;;;4178382;28;20224;-76
2022/12/19 01:24:48;;;;;;;7.50;5.90;;;13.90;80.90;;;;;;4177435;28;20274;-77
2022/12/19 01:26:50;;;;;;;7.57;5.47;;;13.90;81.00;;;;;;4173202;28;20216;-77
2022/12/19 01:28:52;;;;;;;8.00;6.10;;;13.90;80.80;;;;;;4179246;28;20257;-76
2022/12/19 01:30:57;;;;;;;6.93;5.60;;;13.90;81.00;;;;;;4179030;28;20215;-76
2022/12/19 01:33:00;;;;;;;7.50;5.47;;;13.90;80.90;;;;;;4174984;28;20285;-76
2022/12/19 01:35:03;;;;;;;6.27;5.33;;;13.90;80.90;;;;;;4178967;28;20231;-76
2022/12/19 01:37:05;;;;;;;8.87;6.53;;;13.90;81.10;;;;;;4178843;28;20220;-76
2022/12/19 01:39:08;;;;;;;6.10;5.47;;;13.90;81.00;;;;;;4171731;28;20270;-77
2022/12/19 01:41:11;;;;;;;7.73;5.60;;;13.80;81.20;;;;;;4178831;28;20270;-76
2022/12/19 01:43:16;;;;;;;7.90;5.90;;;13.90;81.30;;;;;;4179196;28;20223;-76
2022/12/19 01:45:28;;;;;;;6.77;5.40;;;13.90;81.30;;;;;;4176735;28;20216;-77
2022/12/19 01:47:33;;;;;;;6.37;5.57;;;13.90;81.30;;;;;;4170701;28;20215;-77
2022/12/19 01:49:37;;;;;;;6.57;5.73;;;13.90;81.50;;;;;;4178839;28;20274;-76
2022/12/19 01:51:41;;;;;;;6.43;5.03;;;13.90;81.50;;;;;;4184457;28;20215;-76
2022/12/19 01:53:47;;;;;;;7.77;5.60;;;13.90;81.50;;;;;;4184230;28;20243;-77
2022/12/19 01:55:49;;;;;;;6.70;5.20;;;13.90;81.70;;;;;;4178774;28;20219;-76
2022/12/19 01:57:54;;;;;;;7.27;5.50;;;13.90;81.60;;;;;;4184337;28;20265;-77
2022/12/19 01:59:59;;;;;;;8.00;6.07;;;13.90;81.70;;;;;;4184758;28;20211;-76
2022/12/19 02:02:08;;;;;;;6.00;4.90;;;13.90;81.80;;;;;;4176540;28;20224;-76
2022/12/19 02:04:11;;;;;;;5.80;5.00;;;13.80;81.70;;;;;;4184408;28;20553;-76
2022/12/19 02:06:17;;;;;;;5.97;5.00;;;13.80;81.70;;;;;;4183770;28;20270;-77
2022/12/19 02:08:20;;;;;;;6.10;5.10;;;13.90;82.00;;;;;;4179362;28;20219;-76
2022/12/19 02:10:23;;;;;;;5.47;4.60;;;13.90;82.20;;;;;;4179559;28;20220;-76
2022/12/19 02:12:26;;;;;;;6.17;5.13;;;13.90;82.10;;;;;;4171983;28;20216;-77
2022/12/19 02:14:30;;;;;;;6.20;5.10;;;13.90;82.20;;;;;;4182588;28;20244;-77
2022/12/19 02:16:44;;;;;;;6.63;5.13;;;13.90;82.30;;;;;;4183017;28;20223;-76
2022/12/19 02:18:55;;;;;;;7.00;5.33;;;13.80;82.30;;;;;;4178286;28;20241;-76
2022/12/19 02:21:27;;;;;;;6.53;4.90;;;13.90;82.40;;;;;;4180335;28;20223;-77
2022/12/19 02:24:16;;;;;;;6.37;5.30;;;13.90;82.50;;;;;;4174082;28;20223;-76
2022/12/19 02:26:42;;;;;;;6.00;4.90;;;13.90;82.60;;;;;;4182382;28;20215;-76
2022/12/19 02:29:05;;;;;;;6.80;5.27;;;13.90;83.40;;;;;;4184281;28;20223;-76
2022/12/19 02:31:16;;;;;;;5.90;4.50;;;13.90;82.70;;;;;;4179226;28;20220;-76
2022/12/19 02:33:25;;;;;;;6.43;4.97;;;13.90;82.70;;;;;;4174606;28;20268;-76
2022/12/19 02:35:34;;;;;;;5.43;4.60;;;13.90;83.10;;;;;;4184319;28;20702;-77
2022/12/19 02:37:45;;;;;;;7.20;5.20;;;13.90;82.90;;;;;;4180726;28;20215;-76
2022/12/19 02:39:52;;;;;;;6.83;5.47;;;13.90;82.90;;;;;;4174562;28;20245;-76
2022/12/19 02:41:57;;;;;;;7.03;4.97;;;13.90;83.00;;;;;;4184040;28;20219;-77
2022/12/19 02:44:00;;;;;;;6.93;5.03;;;13.90;83.10;;;;;;4178890;28;20208;-76
2022/12/19 02:46:07;;;;;;;6.63;5.27;;;13.90;83.10;;;;;;4181634;28;20216;-76
2022/12/19 02:48:11;;;;;;;6.97;5.07;;;13.90;83.20;;;;;;4177156;28;20224;-76
2022/12/19 02:50:14;;;;;;;5.07;4.57;;;13.90;83.30;;;;;;4177266;28;20230;-76
2022/12/19 02:52:48;;;;;;;5.97;5.23;;;13.90;83.40;;;;;;4182636;28;20258;-77
2022/12/19 02:54:53;;;;;;;6.50;4.63;;;13.90;83.50;;;;;;4174051;28;20236;-77
2022/12/19 02:57:06;;;;;;;6.63;5.30;;;13.90;84.30;;;;;;4180821;28;20224;-76
2022/12/19 02:59:18;;;;;;;5.40;4.67;;;13.90;83.80;;;;;;4170760;28;20253;-76
2022/12/19 03:01:35;;;;;;;5.90;4.70;;;13.90;83.60;;;;;;4178015;28;20265;-76
2022/12/19 03:03:53;;;;;;;6.37;4.80;;;13.90;83.70;;;;;;4178289;28;20212;-76
2022/12/19 03:06:04;;;;;;;6.37;5.00;;;13.90;83.70;;;;;;4181394;28;20253;-77
2022/12/19 03:08:09;;;;;;;4.73;4.23;;;13.90;83.80;;;;;;4178913;28;20223;-76
2022/12/19 03:10:18;;;;;;;4.97;4.47;;;13.90;83.90;;;;;;4178513;28;20224;-76
2022/12/19 03:12:26;;;;;;;5.67;5.00;;;13.90;84.00;;;;;;4177310;28;20286;-77
2022/12/19 03:14:31;;;;;;;6.23;4.60;;;13.90;84.00;;;;;;4177884;28;21008;-77
2022/12/19 03:16:35;;;;;;;5.90;4.80;;;13.90;84.00;;;;;;4179889;28;20219;-76
2022/12/19 03:18:40;;;;;;;6.60;5.17;;;13.90;84.10;;;;;;4171157;28;20551;-77
2022/12/19 03:20:48;;;;;;;5.33;4.33;;;13.90;84.30;;;;;;4172945;28;20225;-76
2022/12/19 03:22:50;;;;;;;5.40;4.40;;;13.90;84.30;;;;;;4179314;28;20219;-76
2022/12/19 03:24:53;;;;;;;5.37;4.47;;;13.90;85.10;;;;;;4174528;28;20219;-76
2022/12/19 03:27:01;;;;;;;6.20;4.50;;;13.90;84.40;;;;;;4181004;28;20287;-77
2022/12/19 03:29:09;;;;;;;5.30;4.37;;;13.90;84.50;;;;;;4179060;28;20220;-76
2022/12/19 03:31:13;;;;;;;5.83;4.57;;;14.00;84.60;;;;;;4172337;28;20212;-76
2022/12/19 03:33:18;;;;;;;4.90;4.33;;;13.90;84.60;;;;;;4180729;28;20235;-76
2022/12/19 03:35:26;;;;;;;5.13;4.50;;;13.90;84.60;;;;;;4180630;28;20277;-76
2022/12/19 03:37:33;;;;;;;4.10;3.70;;;13.90;84.70;;;;;;4169847;28;20212;-76
2022/12/19 03:39:35;;;;;;;5.50;4.40;;;13.90;84.80;;;;;;4180751;28;20318;-76
2022/12/19 03:43:59;;;;;;;5.67;4.33;;;13.90;84.90;;;;;;4179547;28;20200;-77
2022/12/19 03:46:06;;;;;;;5.30;4.47;;;13.90;85.00;;;;;;4180035;28;20212;-77
2022/12/19 03:48:13;;;;;;;6.33;4.63;;;13.90;85.10;;;;;;4177204;28;20209;-77
2022/12/19 03:50:16;;;;;;;5.10;4.30;;;14.00;85.20;;;;;;4173792;28;20215;-76
2022/12/19 03:52:27;;;;;;;5.93;4.53;;;13.90;85.20;;;;;;4180241;28;20352;-76
2022/12/19 03:54:34;;;;;;;4.70;4.00;;;13.90;85.40;;;;;;4176413;28;20277;-76
2022/12/19 03:56:42;;;;;;;6.30;4.53;;;13.90;85.40;;;;;;4180646;28;20356;-77
2022/12/19 03:58:51;;;;;;;6.07;4.80;;;13.90;85.40;;;;;;4174064;28;20223;-76
2022/12/19 04:00:55;;;;;;;5.07;4.40;;;13.90;85.40;;;;;;4174178;28;20223;-76
2022/12/19 04:02:59;;;;;;;5.33;4.40;;;13.90;85.50;;;;;;4180079;28;20215;-77
2022/12/19 04:05:12;;;;;;;5.00;4.23;;;13.90;85.50;;;;;;4178206;28;20215;-76
2022/12/19 04:07:15;;;;;;;5.73;4.57;;;13.90;85.70;;;;;;4173941;28;20219;-77
2022/12/19 04:09:21;;;;;;;5.17;4.40;;;13.90;85.60;;;;;;4180099;28;20211;-76
2022/12/19 04:11:26;;;;;;;4.47;3.93;;;13.90;85.80;;;;;;4175986;28;20208;-76
2022/12/19 04:13:34;;;;;;;4.87;4.10;;;13.90;85.90;;;;;;4179912;28;20318;-76
2022/12/19 04:15:49;;;;;;;4.90;4.27;;;14.00;86.00;;;;;;4180093;28;20308;-76
2022/12/19 04:17:55;;;;;;;5.50;4.30;;;13.90;86.00;;;;;;4170166;28;20258;-77
2022/12/19 04:20:02;;;;;;;5.40;4.13;;;14.00;86.10;;;;;;4179388;28;20262;-77
2022/12/19 04:22:11;;;;;;;4.83;4.27;;;14.00;86.10;;;;;;4180409;28;20215;-76
2022/12/19 04:24:21;;;;;;;5.60;4.50;;;14.00;86.20;;;;;;4171899;28;20219;-76
2022/12/19 04:26:25;;;;;;;4.13;3.70;;;14.00;86.30;;;;;;4171467;28;20593;-77
2022/12/19 04:28:33;;;;;;;5.60;4.13;;;13.90;86.20;;;;;;4175660;28;21221;-77
2022/12/19 04:30:37;;;;;;;6.33;4.40;;;13.90;86.20;;;;;;4173044;28;20211;-76
2022/12/19 04:32:42;;;;;;;4.63;4.03;;;14.00;86.40;;;;;;4174795;28;20297;-76
2022/12/19 04:34:45;;;;;;;4.90;4.00;;;14.00;86.60;;;;;;4174330;28;20240;-77
2022/12/19 04:36:47;;;;;;;4.50;4.00;;;14.00;86.50;;;;;;4175090;28;20215;-77
2022/12/19 04:38:49;;;;;;;4.63;3.93;;;14.00;86.60;;;;;;4179674;28;20215;-76
2022/12/19 04:40:53;;;;;;;4.23;3.83;;;14.00;86.60;;;;;;4174475;28;20783;-76
2022/12/19 04:42:55;;;;;;;4.70;4.10;;;14.00;86.70;;;;;;4177797;28;20273;-77
2022/12/19 04:44:58;;;;;;;4.77;4.23;;;14.00;86.70;;;;;;4179891;28;20250;-77
2022/12/19 04:47:00;;;;;;;4.27;3.87;;;14.00;86.80;;;;;;4173569;28;20267;-76
2022/12/19 04:49:03;;;;;;;4.90;4.10;;;14.00;86.90;;;;;;4174372;28;20716;-76
2022/12/19 04:51:05;;;;;;;4.70;3.93;;;14.00;86.90;;;;;;4179373;28;20215;-76
2022/12/19 04:53:08;;;;;;;4.97;4.10;;;14.00;87.70;;;;;;4175990;28;20223;-76
2022/12/19 04:55:10;;;;;;;5.27;4.13;;;14.00;87.00;;;;;;4179457;28;20216;-76
2022/12/19 04:57:14;;;;;;;5.60;4.00;;;13.90;87.00;;;;;;4179100;28;20212;-76
2022/12/19 04:59:16;;;;;;;4.77;3.90;;;14.00;87.10;;;;;;4171849;28;20618;-76
2022/12/19 05:01:18;;;;;;;4.27;3.57;;;14.00;87.20;;;;;;4179339;28;20211;-76
2022/12/19 05:03:21;;;;;;;4.67;3.83;;;14.00;87.20;;;;;;4176701;28;20223;-76
2022/12/19 05:05:23;;;;;;;3.93;3.50;;;14.00;87.30;;;;;;4174721;28;20261;-77
2022/12/19 05:07:25;;;;;;;4.93;3.50;;;14.00;87.40;;;;;;4179675;28;20269;-77
2022/12/19 05:09:28;;;;;;;5.03;3.87;;;14.00;87.40;;;;;;4168280;28;20224;-77
2022/12/19 05:11:30;;;;;;;5.27;3.83;;;14.00;87.40;;;;;;4166404;28;20225;-77
2022/12/19 05:13:34;;;;;;;4.37;3.57;;;14.00;87.50;;;;;;4179131;28;20212;-77
2022/12/19 05:15:36;;;;;;;5.03;3.73;;;14.00;87.60;;;;;;4173392;28;20644;-77
2022/12/19 05:17:39;;;;;;;4.47;3.60;;;14.00;87.60;;;;;;4178385;28;20262;-77
2022/12/19 05:19:44;;;;;;;4.73;3.63;;;14.00;87.70;;;;;;4179073;28;20632;-77
2022/12/19 05:21:46;;;;;;;5.27;3.80;;;14.00;87.70;;;;;;4173590;28;20265;-77
2022/12/19 05:23:50;;;;;;;4.63;3.90;;;14.00;87.80;;;;;;4179239;28;20273;-77
2022/12/19 05:25:52;;;;;;;4.63;3.90;;;14.00;87.90;;;;;;4177684;28;20621;-77
2022/12/19 05:27:54;;;;;;;4.37;3.70;;;14.00;87.90;;;;;;4167289;28;20265;-77
2022/12/19 05:29:58;;;;;;;4.80;4.17;;;14.00;88.00;;;;;;4179050;28;20293;-76
2022/12/19 05:32:00;;;;;;;5.17;4.10;;;14.00;88.00;;;;;;4179316;28;20265;-77
2022/12/19 05:34:03;;;;;;;5.43;3.83;;;14.00;88.00;;;;;;4170923;28;20224;-76
2022/12/19 05:36:07;;;;;;;4.90;3.80;;;14.00;88.20;;;;;;4178373;28;20289;-76
2022/12/19 05:38:09;;;;;;;4.07;3.43;;;14.00;88.20;;;;;;4179064;28;20212;-76
2022/12/19 05:40:12;;;;;;;3.93;3.53;;;14.00;88.30;;;;;;4172151;28;20242;-76
2022/12/19 05:42:14;;;;;;;4.93;3.57;;;14.00;88.20;;;;;;4179134;28;20250;-76
2022/12/19 05:44:17;;;;;;;4.53;3.57;;;14.00;88.20;;;;;;4176123;28;20278;-76
2022/12/19 05:46:22;;;;;;;4.87;3.70;;;14.00;88.30;;;;;;4176378;28;20650;-77
2022/12/19 05:48:24;;;;;;;4.13;3.50;;;14.00;88.50;;;;;;4176062;28;20965;-76
2022/12/19 05:50:26;;;;;;;3.70;3.20;;;14.00;88.40;;;;;;4172569;28;20254;-76
2022/12/19 05:52:29;;;;;;;4.27;3.83;;;14.00;88.60;;;;;;4178363;28;20219;-76
2022/12/19 05:54:31;;;;;;;4.30;3.43;;;14.00;88.50;;;;;;4178247;28;20730;-77
2022/12/19 05:56:35;;;;;;;4.10;3.70;;;14.00;88.60;;;;;;4173893;28;20239;-76
2022/12/19 05:58:39;;;;;;;4.30;3.53;;;14.10;88.70;;;;;;4178705;28;20212;-76
2022/12/19 06:00:41;;;;;;;4.27;3.37;;;14.00;88.80;;;;;;4178470;28;20254;-76
2022/12/19 06:02:48;;;;;;;4.43;3.20;;;14.00;88.70;;;;;;4169979;28;20623;-76
2022/12/19 06:04:51;;;;;;;3.03;2.73;;;14.00;88.90;;;;;;4179271;28;20208;-76
2022/12/19 06:06:53;;;;;;;3.93;3.27;;;14.00;88.90;;;;;;4177921;28;20257;-76
2022/12/19 06:08:57;;;;;;;4.40;3.50;;;14.10;89.00;;;;;;4175498;28;20224;-76
2022/12/19 06:11:00;;;;;;;4.00;3.40;;;14.00;89.00;;;;;;4169053;28;20639;-77
2022/12/19 06:13:02;;;;;;;4.47;3.50;;;14.00;89.10;;;;;;4171235;28;20238;-76
2022/12/19 06:15:06;;;;;;;3.80;3.47;;;14.00;89.10;;;;;;4176828;28;20204;-76
2022/12/19 06:17:08;;;;;;;4.17;3.57;;;14.00;89.20;;;;;;4178452;28;20634;-77
2022/12/19 06:19:12;;;;;;;3.93;3.47;;;14.00;89.30;;;;;;4175106;28;20219;-76
2022/12/19 06:21:16;;;;;;;3.40;3.10;;;14.00;89.30;;;;;;4178833;28;20254;-76
2022/12/19 06:23:18;;;;;;;3.40;3.10;;;14.00;89.40;;;;;;4178807;28;20273;-76
2022/12/19 06:25:21;;;;;;;4.13;3.43;;;14.00;89.50;;;;;;4175054;28;20216;-77
2022/12/19 06:27:23;;;;;;;4.37;3.53;;;14.00;89.50;;;;;;4178415;28;20215;-76
2022/12/19 06:29:25;;;;;;;4.03;3.17;;;14.00;89.50;;;;;;4177550;28;20220;-77
2022/12/19 06:31:27;;;;;;;4.27;3.50;;;14.00;89.50;;;;;;4173287;28;21036;-77
2022/12/19 06:33:31;;;;;;;3.57;3.27;;;14.10;89.70;;;;;;4177954;28;20585;-77
2022/12/19 06:35:36;;;;;;;3.70;3.10;;;14.00;89.60;;;;;;4176646;28;20216;-77
2022/12/19 06:37:38;;;;;;;3.67;3.30;;;14.00;89.90;;;;;;4177605;28;20649;-76
2022/12/19 06:39:40;;;;;;;4.40;3.50;;;14.00;90.00;;;;;;4180389;28;20219;-77
2022/12/19 06:44:04;;;;;;;5.13;3.27;;;14.10;90.00;;;;;;4178304;28;20215;-77
2022/12/19 06:46:06;;;;;;;4.63;3.23;;;14.10;89.70;;;;;;4171424;28;20207;-77
2022/12/19 06:48:09;;;;;;;3.47;3.10;;;14.20;90.10;;;;;;4176595;28;20216;-77
2022/12/19 06:50:11;;;;;;;3.70;3.20;;;14.20;90.40;;;;;;4179632;28;20622;-77
2022/12/19 06:52:15;;;;;;;5.17;3.00;;;14.20;90.50;;;;;;4178502;28;20664;-77
2022/12/19 06:54:17;;;;;;;3.10;2.80;;;14.30;90.50;;;;;;4175257;28;20729;-77
2022/12/19 06:56:20;;;;;;;3.50;3.20;;;14.30;90.50;;;;;;4180938;28;20245;-72
2022/12/19 06:58:22;;;;;;;3.73;3.10;;;14.40;90.60;;;;;;4181688;28;20219;-71
2022/12/19 07:00:25;;;;;;;3.13;2.80;;;14.40;90.80;;;;;;4176689;28;20262;-71
2022/12/19 07:02:31;;;;;;;4.10;3.30;;;14.40;90.60;;;;;;4180803;28;20273;-71
2022/12/19 07:04:39;;;;;;;3.80;3.30;;;14.40;90.60;;;;;;4178852;28;20215;-71
2022/12/19 07:06:42;;;;;;;4.27;3.00;;;14.50;90.60;;;;;;4178295;28;20253;-71
2022/12/19 07:08:46;;;;;;;3.13;2.83;;;14.50;90.60;;;;;;4181200;28;20261;-71
2022/12/19 07:10:48;;;;;;;3.87;3.00;;;14.60;90.70;;;;;;4172084;28;20226;-71
2022/12/19 07:12:51;;;;;;;3.57;2.77;;;14.60;90.70;;;;;;4180825;28;20277;-71
2022/12/19 07:14:53;;;;;;;3.13;2.57;;;14.60;90.70;;;;;;4180898;28;20216;-71
2022/12/19 07:16:59;;;;;;;3.10;2.70;;;14.70;90.70;;;;;;4173444;28;20231;-71
2022/12/19 07:19:01;;;;;;;3.00;2.70;;;14.70;90.70;;;;;;4174000;28;20216;-71
2022/12/19 07:21:05;;;;;;;3.20;2.67;;;14.70;90.70;;;;;;4175845;28;20221;-71
2022/12/19 07:23:09;;;;;;;4.60;2.50;;;14.70;90.70;;;;;;4176886;28;20269;-71
2022/12/19 07:25:13;;;;;;;3.27;2.60;;;14.70;90.70;;;;;;4173866;28;20262;-71
2022/12/19 07:27:16;;;;;;;3.10;2.63;;;14.70;90.70;;;;;;4179735;28;20216;-71
2022/12/19 07:29:18;;;;;;;2.83;2.57;;;14.70;90.70;;;;;;4171126;28;20273;-71
2022/12/19 07:31:20;;;;;;;3.10;2.40;;;14.80;90.80;;;;;;4180326;28;20270;-71
2022/12/19 07:33:23;;;;;;;3.40;2.60;;;14.80;90.80;;;;;;4179600;28;20289;-71
2022/12/19 07:35:25;;;;;;;3.23;2.57;;;14.80;90.80;;;;;;4171988;28;20219;-71
2022/12/19 07:37:29;;;;;;;2.83;2.57;;;14.90;90.80;;;;;;4180719;28;20590;-71
2022/12/19 07:39:31;;;;;;;3.30;2.80;;;14.90;90.80;;;;;;4178119;28;20219;-71
2022/12/19 07:41:37;;;;;;;4.27;2.57;;;14.90;90.80;;;;;;4170533;28;20262;-71
2022/12/19 07:43:40;;;;;;;2.67;2.23;;;14.90;90.80;;;;;;4179591;28;20219;-71
2022/12/19 07:45:42;;;;;;;2.57;2.33;;;14.90;90.80;;;;;;4176374;28;20224;-71
2022/12/19 07:47:45;;;;;;;2.73;2.30;;;14.90;90.80;;;;;;4180501;28;20216;-71
2022/12/19 07:49:47;;;;;;;2.53;2.13;;;15.00;90.90;;;;;;4180216;28;20269;-71
2022/12/19 07:51:49;;;;;;;3.10;2.70;;;15.00;90.90;;;;;;4173879;28;20259;-71
2022/12/19 07:53:52;;;;;;;2.53;2.30;;;14.90;91.30;;;;;;4180400;28;20281;-71
2022/12/19 07:55:54;;;;;;;3.47;2.80;;;15.00;91.60;;;;;;4173395;28;20219;-70
2022/12/19 07:57:59;;;;;;;4.60;2.70;;;15.00;91.80;;;;;;4172513;28;20301;-71
2022/12/19 08:00:02;;;;;;;5.60;3.17;;;15.00;91.90;;;;;;4175500;28;20263;-71
2022/12/19 08:02:04;;;;;;;7.77;3.13;;;15.10;92.30;;;;;;4170007;28;20262;-71
2022/12/19 08:04:06;;;;;;;20.70;3.93;;;15.20;92.20;;;;;;4172157;28;20215;-72
2022/12/19 08:06:09;;;;;;;39.03;5.37;;;15.30;92.20;;;;;;4168679;28;20203;-73
2022/12/19 08:08:12;;;;;;;35.60;5.37;;;15.40;92.60;;;;;;4164355;28;20857;-74
2022/12/19 08:10:14;;;;;;;35.17;5.57;;;15.50;92.80;;;;;;4171906;28;20259;-73
2022/12/19 08:12:17;;;;;;;28.25;6.03;;;15.70;92.60;;;;;;4170786;28;20223;-72
2022/12/19 08:14:21;;;;;;;38.92;5.60;;;16.00;92.40;;;;;;4162712;28;21906;-72
2022/12/19 08:16:27;;;;;;;25.43;5.47;;;16.30;92.20;;;;;;4173483;28;21967;-74
2022/12/19 08:18:29;;;;;;;28.10;4.90;;;16.40;91.70;;;;;;4172206;28;20285;-73
2022/12/19 08:20:32;;;;;;;20.92;4.88;;;16.60;91.30;;;;;;4166867;28;21730;-72
2022/12/19 08:22:34;;;;;;;28.77;4.80;;;16.70;91.10;;;;;;4167745;28;20216;-73
2022/12/19 08:24:37;;;;;;;19.15;4.10;;;16.60;91.00;;;;;;4170998;28;20208;-73
2022/12/19 08:26:40;;;;;;;21.08;4.50;;;16.80;91.10;;;;;;4168502;28;20289;-72
2022/12/19 08:28:42;;;;;;;11.80;3.30;;;17.00;90.50;;;;;;4174146;28;20948;-73
2022/12/19 08:30:46;;;;;;;13.70;3.40;;;17.20;90.10;;;;;;4175004;28;20216;-72
2022/12/19 08:32:48;;;;;;;20.67;3.28;;;17.30;89.60;;;;;;4168976;28;20588;-73
2022/12/19 08:34:51;;;;;;;22.20;3.67;;;17.20;89.30;;;;;;4174837;28;20656;-73
2022/12/19 08:36:53;;;;;;;20.23;4.00;;;17.40;89.20;;;;;;4170844;28;20623;-72
2022/12/19 08:38:56;;;;;;;10.73;3.60;;;17.40;89.20;;;;;;4164885;28;20236;-72
2022/12/19 08:40:58;;;;;;;14.10;3.17;;;17.50;89.30;;;;;;4169965;28;20216;-72
2022/12/19 08:43:00;;;;;;;10.68;3.88;;;17.70;88.90;;;;;;4167978;28;20269;-72
2022/12/19 08:45:05;;;;;;;11.77;3.25;;;17.80;88.60;;;;;;4171451;28;20321;-73
2022/12/19 08:47:09;;;;;;;12.43;2.53;;;17.90;88.50;;;;;;4161208;28;20612;-72
2022/12/19 08:49:11;;;;;;;11.25;3.33;;;17.90;88.20;;;;;;4158453;28;20220;-72
2022/12/19 08:51:15;;;;;;;11.52;2.92;;;17.90;88.50;;;;;;4164484;28;20265;-73
2022/12/19 08:53:17;;;;;;;12.50;3.42;;;18.00;88.20;;;;;;4166008;28;20277;-78
2022/12/19 08:55:19;;;;;;;7.90;2.92;;;18.10;88.60;;;;;;4171677;28;20212;-75
2022/12/19 08:57:22;;;;;;;11.45;3.22;;;18.30;88.90;;;;;;4167519;28;20211;-74
2022/12/19 08:59:24;;;;;;;9.27;3.08;;;18.40;90.10;;;;;;4167198;28;21168;-75
2022/12/19 09:01:27;;;;;;;8.23;3.20;;;18.40;89.50;;;;;;4165696;28;20231;-75
2022/12/19 09:03:31;;;;;;;18.42;3.30;;;18.40;89.30;;;;;;4170602;28;20212;-75
2022/12/19 09:05:33;;;;;;;8.52;2.40;;;18.40;88.90;;;;;;4169404;28;20227;-75
2022/12/19 09:07:36;;;;;;;9.57;3.00;;;18.30;88.60;;;;;;4171658;28;20208;-75
2022/12/19 09:09:38;;;;;;;7.35;2.60;;;18.30;88.50;;;;;;4166752;28;20656;-74
2022/12/19 09:11:40;;;;;;;7.45;2.67;;;18.40;88.70;;;;;;4168867;28;20220;-76
2022/12/19 09:13:43;;;;;;;8.25;2.65;;;18.50;89.30;;;;;;4167730;28;20224;-75
2022/12/19 09:15:46;;;;;;;7.50;2.88;;;18.50;89.00;;;;;;4165352;28;20318;-74
2022/12/19 09:17:48;;;;;;;7.78;2.67;;;18.60;88.80;;;;;;4163039;28;20239;-75
2022/12/19 09:19:52;;;;;;;9.60;2.75;;;18.60;88.60;;;;;;4164977;28;20216;-74
2022/12/19 09:21:54;;;;;;;6.72;2.45;;;18.60;88.70;;;;;;4165793;28;20224;-76
2022/12/19 09:23:58;;;;;;;7.68;2.55;;;18.60;89.00;;;;;;4167946;28;20270;-75
2022/12/19 09:26:04;;;;;;;7.50;3.00;;;18.60;88.90;;;;;;4166543;28;20711;-76
2022/12/19 09:28:06;;;;;;;5.90;2.90;;;18.60;89.20;;;;;;4164780;28;20270;-78
2022/12/19 09:30:11;;;;;;;11.35;3.10;;;18.60;90.10;;;;;;4164167;28;20215;-73
2022/12/19 09:32:13;;;;;;;7.97;2.90;;;18.40;90.80;;;;;;4155971;28;20212;-73
2022/12/19 09:34:16;;;;;;;5.80;2.60;;;18.50;90.60;;;;;;4163580;28;20900;-72
2022/12/19 09:36:21;;;;;;;12.48;3.15;;;18.60;90.50;;;;;;4166592;28;20281;-72
2022/12/19 09:38:25;;;;;;;9.30;2.70;;;18.70;90.50;;;;;;4163200;28;20297;-71
2022/12/19 09:40:34;;;;;;;8.48;2.83;;;18.60;90.70;;;;;;4166934;28;20300;-72
2022/12/19 09:42:53;;;;;;;10.25;3.05;;;18.70;90.80;;;;;;4165517;28;20215;-72
2022/12/19 09:45:11;;;;;;;9.30;2.85;;;18.60;91.10;;;;;;4168206;28;20231;-72
2022/12/19 09:47:16;;;;;;;9.77;2.65;;;18.80;90.70;;;;;;4167208;28;21368;-72
2022/12/19 09:49:23;;;;;;;6.03;2.95;;;18.80;90.60;;;;;;4165336;28;20222;-72
2022/12/19 09:51:34;;;;;;;10.63;2.97;;;18.80;90.70;;;;;;4159198;28;20241;-72
2022/12/19 09:53:44;;;;;;;7.55;2.47;;;18.70;90.70;;;;;;4168607;28;20266;-72
2022/12/19 09:55:47;;;;;;;6.15;2.25;;;18.80;90.60;;;;;;4168760;28;20316;-72
2022/12/19 09:57:54;;;;;;;5.18;2.70;;;18.80;90.60;;;;;;4167896;28;20221;-71
2022/12/19 10:00:01;;;;;;;5.88;2.67;;;18.90;90.50;;;;;;4169369;28;20273;-72
2022/12/19 10:02:32;;;;;;;7.32;2.78;;;19.00;90.50;;;;;;4167854;28;20272;-72
2022/12/19 10:04:36;;;;;;;7.63;3.03;;;19.00;90.10;;;;;;4168845;28;20269;-71
2022/12/19 10:06:40;;;;;;;5.13;2.67;;;19.00;90.40;;;;;;4169772;28;20726;-70
2022/12/19 10:08:44;;;;;;;6.68;2.60;;;18.90;90.70;;;;;;4162605;28;20224;-72
2022/12/19 10:10:59;;;;;;;6.65;2.80;;;18.90;90.40;;;;;;4171375;28;20355;-73
2022/12/19 10:13:14;;;;;;;6.07;2.70;;;18.90;91.00;;;;;;4164677;28;20224;-72
2022/12/19 10:15:27;;;;;;;6.13;2.85;;;19.00;90.60;;;;;;4163621;28;20277;-72
2022/12/19 10:17:38;;;;;;;7.90;2.92;;;19.20;90.90;;;;;;4166164;28;20208;-71
2022/12/19 10:19:49;;;;;;;6.88;2.60;;;19.20;90.60;;;;;;4168691;28;20261;-71
2022/12/19 10:21:59;;;;;;;8.27;2.72;;;18.90;90.50;;;;;;4170399;28;20622;-71
2022/12/19 10:24:23;;;;;;;7.60;2.50;;;19.00;90.70;;;;;;4174326;28;20212;-71
2022/12/19 10:26:34;;;;;;;6.80;2.53;;;19.10;90.70;;;;;;4164917;28;20223;-72
2022/12/19 10:28:51;;;;;;;10.88;2.88;;;19.20;90.70;;;;;;4178896;28;20277;-72
2022/12/19 10:31:02;;;;;;;8.20;2.78;;;19.20;90.50;;;;;;4168546;28;20215;-72
2022/12/19 10:33:14;;;;;;;5.00;2.85;;;19.10;90.60;;;;;;4170767;28;20285;-71
2022/12/19 10:35:19;;;;;;;4.20;2.53;;;19.20;90.80;;;;;;4169848;28;20262;-71
2022/12/19 10:37:26;;;;;;;5.68;2.83;;;19.20;90.60;;;;;;4172005;28;20565;-72
2022/12/19 10:39:33;;;;;;;8.68;2.70;;;19.00;90.70;;;;;;4166349;28;20277;-72
2022/12/19 10:41:41;;;;;;;7.13;2.70;;;19.00;90.70;;;;;;4165967;28;20220;-73
2022/12/19 10:43:54;;;;;;;5.43;2.50;;;19.10;90.40;;;;;;4172309;28;20596;-72
2022/12/19 10:46:01;;;;;;;6.90;2.83;;;19.20;90.40;;;;;;4174983;28;20219;-72
2022/12/19 10:48:06;;;;;;;6.97;2.90;;;19.30;90.80;;;;;;4170267;28;20220;-71
2022/12/19 10:50:12;;;;;;;6.53;2.78;;;19.40;90.40;;;;;;4170210;28;20258;-72
2022/12/19 10:52:15;;;;;;;6.53;2.42;;;19.40;90.30;;;;;;4165581;28;20277;-72
2022/12/19 10:54:19;;;;;;;4.72;2.70;;;19.20;90.50;;;;;;4165741;28;20641;-73
2022/12/19 10:56:23;;;;;;;2.70;2.17;;;19.40;90.40;;;;;;4173002;28;20213;-72